createdAt,value
2023-04-21T00:00:49.104Z,258.51
2023-04-21T00:03:56.320Z,259.23
2023-04-21T00:07:04.086Z,272.71
2023-04-21T00:10:13.261Z,280.29
2023-04-21T00:13:21.340Z,293.21
2023-04-21T00:16:31.000Z,292.91
2023-04-21T00:19:36.950Z,285.05
2023-04-21T00:22:44.028Z,389.95
2023-04-21T00:25:49.906Z,398.50
2023-04-21T00:28:56.757Z,344.75
2023-04-21T00:32:08.760Z,312.23
2023-04-21T00:35:16.421Z,338.20
2023-04-21T00:38:22.323Z,329.35
2023-04-21T00:41:32.073Z,293.76
2023-04-21T00:44:44.616Z,287.00
2023-04-21T00:47:54.128Z,294.78
2023-04-21T00:51:00.295Z,298.49
2023-04-21T00:54:10.435Z,294.23
2023-04-21T00:57:17.004Z,303.93
2023-04-21T01:00:24.028Z,306.87
2023-04-21T01:03:34.758Z,310.94
2023-04-21T01:06:45.817Z,320.40
2023-04-21T01:09:55.324Z,336.41
2023-04-21T01:13:03.630Z,339.89
2023-04-21T01:16:11.357Z,337.90
2023-04-21T01:19:20.966Z,338.92
2023-04-21T01:22:36.003Z,301.41
2023-04-21T01:25:42.784Z,288.87
2023-04-21T01:28:49.496Z,286.45
2023-04-21T01:31:56.316Z,293.53
2023-04-21T01:35:04.584Z,298.98
2023-04-21T01:38:14.531Z,266.72
2023-04-21T01:41:22.143Z,251.38
2023-04-21T01:44:35.460Z,262.32
2023-04-21T01:47:41.575Z,257.15
2023-04-21T01:50:56.330Z,276.77
2023-04-21T01:54:09.155Z,290.14
2023-04-21T01:57:16.071Z,306.43
2023-04-21T02:00:22.601Z,302.79
2023-04-21T02:03:29.700Z,307.94
2023-04-21T02:06:36.511Z,313.49
2023-04-21T02:09:46.406Z,316.23
2023-04-21T02:12:53.990Z,309.15
2023-04-21T02:16:12.881Z,311.17
2023-04-21T02:19:27.325Z,305.26
2023-04-21T02:22:34.847Z,307.24
2023-04-21T02:25:45.069Z,317.86
2023-04-21T02:28:52.743Z,330.90
2023-04-21T02:32:05.146Z,354.31
2023-04-21T02:35:17.920Z,327.57
2023-04-21T02:38:23.732Z,289.16
2023-04-21T02:41:33.164Z,288.57
2023-04-21T02:44:41.217Z,312.89
2023-04-21T02:47:48.010Z,321.86
2023-04-21T02:50:56.756Z,327.26
2023-04-21T02:54:05.192Z,341.29
2023-04-21T02:57:13.709Z,353.78
2023-04-21T03:00:21.333Z,357.01
2023-04-21T03:03:27.364Z,364.89
2023-04-21T03:06:37.241Z,379.81
2023-04-21T03:09:45.224Z,357.49
2023-04-21T03:12:54.705Z,383.62
2023-04-21T03:16:00.813Z,403.38
2023-04-21T03:19:07.676Z,398.52
2023-04-21T03:22:16.050Z,406.24
2023-04-21T03:25:30.438Z,375.46
2023-04-21T03:28:49.830Z,362.14
2023-04-21T03:32:06.182Z,363.89
2023-04-21T03:35:12.312Z,325.09
2023-04-21T03:38:19.077Z,295.18
2023-04-21T03:41:25.349Z,291.66
2023-04-21T03:44:34.967Z,305.15
2023-04-21T03:47:41.319Z,332.35
2023-04-21T03:50:48.119Z,329.77
2023-04-21T03:53:54.168Z,321.79
2023-04-21T03:57:00.812Z,308.37
2023-04-21T04:00:13.078Z,315.09
2023-04-21T04:03:21.900Z,313.10
2023-04-21T04:06:29.842Z,315.79
2023-04-21T04:09:36.551Z,331.83
2023-04-21T04:12:42.574Z,364.78
2023-04-21T04:15:51.973Z,357.29
2023-04-21T04:18:58.155Z,366.61
2023-04-21T04:22:07.962Z,365.35
2023-04-21T04:25:21.436Z,346.53
2023-04-21T04:28:29.203Z,350.51
2023-04-21T04:31:38.132Z,379.94
2023-04-21T04:34:44.920Z,352.21
2023-04-21T04:37:51.084Z,340.89
2023-04-21T04:40:59.271Z,334.51
2023-04-21T04:44:05.336Z,327.40
2023-04-21T04:47:15.400Z,345.82
2023-04-21T04:50:21.661Z,357.53
2023-04-21T04:53:28.616Z,368.38
2023-04-21T04:56:41.448Z,435.60
2023-04-21T04:59:57.351Z,417.65
2023-04-21T05:03:06.489Z,451.42
2023-04-21T05:06:14.393Z,465.63
2023-04-21T05:09:26.500Z,403.36
2023-04-21T05:12:38.157Z,408.66
2023-04-21T05:15:47.485Z,380.24
2023-04-21T05:18:56.968Z,399.98
2023-04-21T05:22:06.733Z,449.97
2023-04-21T05:25:16.206Z,457.72
2023-04-21T05:28:23.483Z,479.01
2023-04-21T05:31:30.639Z,472.31
2023-04-21T05:34:39.400Z,413.98
2023-04-21T05:37:46.184Z,323.42
2023-04-21T05:40:58.096Z,223.25
2023-04-21T05:44:04.953Z,206.46
2023-04-21T05:47:11.194Z,193.51
2023-04-21T05:50:20.693Z,185.57
2023-04-21T05:53:27.854Z,185.32
2023-04-21T05:56:34.659Z,191.03
2023-04-21T05:59:40.721Z,207.61
2023-04-21T06:02:47.580Z,219.93
2023-04-21T06:06:00.643Z,198.88
2023-04-21T06:09:10.249Z,171.52
2023-04-21T06:12:16.208Z,159.84
2023-04-21T06:15:22.942Z,154.23
2023-04-21T06:18:30.685Z,152.55
2023-04-21T06:21:40.038Z,140.08
2023-04-21T06:24:46.113Z,167.00
2023-04-21T06:27:52.850Z,159.96
2023-04-21T06:30:58.771Z,159.11
2023-04-21T06:34:05.849Z,158.71
2023-04-21T06:37:14.412Z,144.30
2023-04-21T06:40:21.474Z,137.46
2023-04-21T06:43:27.414Z,131.67
2023-04-21T06:46:34.214Z,136.46
2023-04-21T06:49:40.493Z,133.52
2023-04-21T06:52:50.019Z,133.16
2023-04-21T06:55:56.615Z,128.72
2023-04-21T06:59:03.557Z,125.58
2023-04-21T07:02:09.780Z,123.38
2023-04-21T07:05:16.582Z,123.86
2023-04-21T07:08:25.224Z,126.60
2023-04-21T07:11:32.094Z,129.89
2023-04-21T07:14:37.916Z,131.67
2023-04-21T07:17:44.786Z,130.12
2023-04-21T07:20:51.789Z,133.82
2023-04-21T07:24:01.709Z,127.37
2023-04-21T07:27:07.882Z,130.11
2023-04-21T07:30:16.088Z,129.39
2023-04-21T07:33:21.989Z,126.22
2023-04-21T07:36:31.107Z,130.88
2023-04-21T07:39:39.740Z,129.63
2023-04-21T07:42:46.691Z,125.32
2023-04-21T07:45:52.865Z,126.00
2023-04-21T07:49:13.532Z,122.27
2023-04-21T07:52:34.765Z,123.29
2023-04-21T07:55:44.219Z,122.76
2023-04-21T07:58:50.154Z,113.12
2023-04-21T08:01:57.273Z,116.29
2023-04-21T08:05:03.598Z,116.87
2023-04-21T08:08:10.817Z,110.60
2023-04-21T08:11:32.443Z,105.84
2023-04-21T08:14:39.252Z,99.18
2023-04-21T08:17:45.255Z,97.41
2023-04-21T08:20:52.762Z,94.91
2023-04-21T08:23:58.750Z,91.72
2023-04-21T08:27:08.233Z,88.91
2023-04-21T08:30:16.622Z,89.94
2023-04-21T08:33:23.595Z,92.13
2023-04-21T08:36:30.354Z,93.24
2023-04-21T08:39:37.549Z,92.39
2023-04-21T08:42:46.327Z,92.45
2023-04-21T08:45:55.656Z,92.19
2023-04-21T08:49:03.078Z,86.21
2023-04-21T08:52:16.965Z,84.98
2023-04-21T08:55:29.272Z,82.59
2023-04-21T08:58:39.006Z,86.61
2023-04-21T09:02:16.516Z,85.02
2023-04-21T09:05:27.486Z,87.41
2023-04-21T09:08:40.247Z,87.57
2023-04-21T09:11:53.211Z,87.29
2023-04-21T09:15:02.564Z,85.10
2023-04-21T09:18:16.053Z,88.89
2023-04-21T09:21:23.638Z,90.27
2023-04-21T09:24:34.126Z,94.08
2023-04-21T09:27:40.269Z,91.05
2023-04-21T09:30:49.645Z,89.94
2023-04-21T09:34:00.704Z,94.18
2023-04-21T09:37:18.207Z,112.79
2023-04-21T09:40:31.598Z,118.58
2023-04-21T09:43:52.317Z,110.59
2023-04-21T09:47:06.317Z,105.37
2023-04-21T09:50:17.199Z,100.49
2023-04-21T09:53:31.608Z,97.07
2023-04-21T09:56:45.726Z,90.76
2023-04-21T09:59:59.786Z,91.93
2023-04-21T10:03:11.772Z,88.79
2023-04-21T10:06:19.775Z,93.40
2023-04-21T10:09:34.680Z,92.95
2023-04-21T10:12:41.451Z,84.67
2023-04-21T10:15:48.331Z,83.83
2023-04-21T10:18:57.113Z,82.59
2023-04-21T10:22:04.071Z,81.92
2023-04-21T10:25:15.101Z,77.76
2023-04-21T10:28:25.241Z,76.09
2023-04-21T10:31:37.026Z,77.03
2023-04-21T10:34:47.066Z,74.46
2023-04-21T10:37:55.521Z,76.87
2023-04-21T10:41:34.129Z,78.94
2023-04-21T10:44:45.327Z,80.27
2023-04-21T10:47:53.067Z,75.20
2023-04-21T10:51:08.631Z,81.52
2023-04-21T10:54:21.303Z,77.88
2023-04-21T10:57:27.399Z,78.85
2023-04-21T11:00:34.806Z,81.12
2023-04-21T11:03:51.761Z,81.95
2023-04-21T11:07:15.361Z,80.66
2023-04-21T11:10:21.258Z,77.92
2023-04-21T11:13:34.008Z,78.52
2023-04-21T11:16:42.459Z,78.08
2023-04-21T11:19:52.562Z,80.27
2023-04-21T11:23:02.780Z,78.11
2023-04-21T11:26:09.552Z,78.01
2023-04-21T11:29:15.918Z,79.46
2023-04-21T11:32:22.701Z,87.75
2023-04-21T11:35:28.786Z,85.35
2023-04-21T11:38:44.898Z,86.69
2023-04-21T11:41:53.885Z,94.18
2023-04-21T11:45:01.306Z,92.94
2023-04-21T11:48:22.879Z,88.65
2023-04-21T11:51:31.791Z,93.97
2023-04-21T11:54:42.037Z,92.16
2023-04-21T11:57:49.086Z,97.27
2023-04-21T12:00:55.153Z,92.48
2023-04-21T12:04:02.069Z,87.97
2023-04-21T12:07:08.189Z,87.97
2023-04-21T12:10:21.687Z,83.37
2023-04-21T12:13:28.628Z,82.59
2023-04-21T12:16:35.560Z,83.27
2023-04-21T12:19:44.733Z,87.27
2023-04-21T12:22:52.700Z,86.89
2023-04-21T12:26:01.732Z,86.21
2023-04-21T12:29:08.524Z,81.83
2023-04-21T12:32:14.376Z,86.46
2023-04-21T12:35:35.980Z,79.04
2023-04-21T12:38:43.618Z,73.50
2023-04-21T12:41:52.991Z,77.62
2023-04-21T12:44:58.817Z,74.74
2023-04-21T12:48:07.073Z,74.78
2023-04-21T12:51:13.139Z,75.76
2023-04-21T12:54:20.665Z,77.03
2023-04-21T12:57:29.902Z,79.39
2023-04-21T13:00:36.840Z,77.05
2023-04-21T13:03:44.571Z,77.80
2023-04-21T13:06:51.782Z,75.62
2023-04-21T13:09:57.919Z,76.19
2023-04-21T13:13:07.607Z,78.25
2023-04-21T13:16:13.809Z,75.73
2023-04-21T13:19:20.844Z,75.92
2023-04-21T13:22:27.116Z,74.50
2023-04-21T13:25:34.055Z,74.47
2023-04-21T13:28:42.931Z,76.48
2023-04-21T13:31:49.904Z,74.48
2023-04-21T13:34:56.167Z,73.53
2023-04-21T13:38:02.913Z,73.41
2023-04-21T13:41:09.549Z,71.86
2023-04-21T13:44:19.090Z,71.99
2023-04-21T13:47:25.136Z,75.75
2023-04-21T13:50:32.038Z,73.35
2023-04-21T13:53:37.936Z,71.81
2023-04-21T13:56:44.845Z,74.11
2023-04-21T13:59:54.492Z,73.40
2023-04-21T14:03:01.910Z,76.67
2023-04-21T14:06:11.441Z,74.06
2023-04-21T14:09:18.682Z,78.88
2023-04-21T14:12:26.398Z,76.95
2023-04-21T14:15:36.200Z,76.50
2023-04-21T14:18:45.395Z,76.60
2023-04-21T14:21:52.177Z,72.44
2023-04-21T14:24:58.108Z,70.91
2023-04-21T14:28:07.583Z,72.86
2023-04-21T14:31:16.545Z,73.89
2023-04-21T14:34:23.426Z,69.78
2023-04-21T14:37:30.471Z,67.15
2023-04-21T14:40:37.293Z,69.53
2023-04-21T14:43:43.258Z,67.37
2023-04-21T14:47:05.602Z,66.74
2023-04-21T14:50:15.225Z,68.34
2023-04-21T14:53:22.177Z,64.11
2023-04-21T14:56:28.141Z,68.20
2023-04-21T14:59:35.289Z,69.03
2023-04-21T15:02:44.637Z,64.99
2023-04-21T15:05:51.490Z,67.36
2023-04-21T15:08:57.466Z,64.67
2023-04-21T15:12:04.321Z,63.60
2023-04-21T15:15:12.060Z,64.14
2023-04-21T15:18:21.663Z,64.51
2023-04-21T15:21:27.991Z,59.36
2023-04-21T15:24:34.896Z,62.92
2023-04-21T15:27:41.474Z,64.14
2023-04-21T15:30:48.356Z,65.37
2023-04-21T15:33:59.234Z,61.71
2023-04-21T15:37:05.981Z,58.48
2023-04-21T15:40:14.194Z,57.57
2023-04-21T15:43:22.040Z,57.46
2023-04-21T15:46:29.659Z,61.09
2023-04-21T15:49:39.296Z,63.09
2023-04-21T15:52:45.577Z,61.91
2023-04-21T15:55:52.756Z,62.22
2023-04-21T15:58:58.657Z,62.02
2023-04-21T16:02:06.372Z,64.54
2023-04-21T16:05:15.575Z,64.09
2023-04-21T16:08:22.468Z,61.59
2023-04-21T16:11:29.654Z,67.07
2023-04-21T16:14:51.255Z,75.37
2023-04-21T16:18:04.291Z,68.10
2023-04-21T16:21:13.871Z,68.96
2023-04-21T16:24:20.228Z,64.95
2023-04-21T16:27:27.133Z,63.36
2023-04-21T16:30:33.329Z,66.94
2023-04-21T16:33:40.088Z,64.12
2023-04-21T16:36:48.961Z,61.78
2023-04-21T16:40:02.863Z,63.77
2023-04-21T16:43:09.363Z,61.10
2023-04-21T16:46:22.873Z,64.13
2023-04-21T16:49:30.571Z,66.35
2023-04-21T16:52:40.149Z,63.20
2023-04-21T16:55:46.253Z,61.85
2023-04-21T16:58:58.567Z,62.24
2023-04-21T17:02:04.713Z,65.36
2023-04-21T17:05:13.062Z,64.81
2023-04-21T17:08:28.828Z,62.93
2023-04-21T17:11:37.502Z,60.13
2023-04-21T17:14:44.775Z,57.65
2023-04-21T17:17:51.656Z,58.81
2023-04-21T17:20:57.714Z,64.95
2023-04-21T17:24:07.650Z,65.73
2023-04-21T17:27:23.689Z,66.93
2023-04-21T17:30:30.440Z,68.08
2023-04-21T17:33:46.908Z,71.43
2023-04-21T17:36:53.937Z,71.35
2023-04-21T17:40:09.852Z,73.67
2023-04-21T17:43:16.829Z,80.46
2023-04-21T17:46:25.109Z,80.03
2023-04-21T17:49:32.516Z,82.16
2023-04-21T17:52:38.571Z,82.60
2023-04-21T17:55:48.109Z,77.66
2023-04-21T17:58:56.390Z,76.72
2023-04-21T18:02:16.201Z,77.16
2023-04-21T18:05:23.449Z,82.33
2023-04-21T18:08:30.388Z,75.82
2023-04-21T18:11:39.430Z,69.85
2023-04-21T18:14:46.329Z,70.88
2023-04-21T18:17:53.484Z,73.52
2023-04-21T18:21:00.571Z,81.35
2023-04-21T18:24:06.654Z,92.62
2023-04-21T18:27:17.810Z,99.42
2023-04-21T18:30:24.396Z,108.36
2023-04-21T18:33:32.066Z,105.37
2023-04-21T18:36:45.956Z,100.74
2023-04-21T18:39:52.688Z,101.92
2023-04-21T18:43:02.850Z,122.60
2023-04-21T18:46:21.831Z,137.24
2023-04-21T18:49:32.080Z,152.19
2023-04-21T18:52:38.961Z,142.75
2023-04-21T18:55:45.747Z,141.29
2023-04-21T18:58:57.008Z,139.44
2023-04-21T19:02:04.286Z,129.14
2023-04-21T19:05:12.665Z,122.51
2023-04-21T19:08:30.064Z,114.24
2023-04-21T19:11:45.279Z,140.49
2023-04-21T19:14:55.543Z,155.61
2023-04-21T19:18:02.562Z,160.45
2023-04-21T19:21:13.008Z,283.81
2023-04-21T19:24:21.606Z,234.74
2023-04-21T19:27:27.732Z,158.28
2023-04-21T19:30:37.615Z,139.64
2023-04-21T19:33:44.746Z,128.12
2023-04-21T19:36:53.225Z,136.81
2023-04-21T19:39:59.429Z,127.95
2023-04-21T19:43:09.103Z,131.82
2023-04-21T19:46:17.816Z,135.36
2023-04-21T19:49:25.205Z,121.49
2023-04-21T19:52:31.294Z,144.16
2023-04-21T19:55:38.065Z,170.71
2023-04-21T19:58:44.625Z,165.44
2023-04-21T20:02:05.246Z,174.74
2023-04-21T20:05:12.710Z,234.86
2023-04-21T20:08:24.540Z,279.96
2023-04-21T20:11:31.660Z,170.51
2023-04-21T20:14:41.955Z,177.96
2023-04-21T20:17:50.609Z,161.90
2023-04-21T20:20:57.558Z,229.37
2023-04-21T20:24:03.963Z,322.57
2023-04-21T20:27:10.758Z,347.54
2023-04-21T20:30:17.138Z,264.99
2023-04-21T20:33:28.386Z,237.76
2023-04-21T20:36:37.236Z,183.13
2023-04-21T20:39:47.189Z,161.15
2023-04-21T20:42:53.185Z,150.24
2023-04-21T20:46:00.112Z,149.85
2023-04-21T20:49:09.357Z,158.38
2023-04-21T20:52:16.328Z,157.89
2023-04-21T20:55:22.290Z,154.32
2023-04-21T20:58:28.960Z,150.88
2023-04-21T21:01:39.276Z,166.60
2023-04-21T21:04:49.530Z,169.35
2023-04-21T21:08:02.905Z,162.43
2023-04-21T21:11:15.900Z,166.64
2023-04-21T21:14:23.553Z,159.45
2023-04-21T21:17:30.412Z,154.06
2023-04-21T21:20:39.043Z,157.32
2023-04-21T21:23:45.800Z,155.63
2023-04-21T21:26:51.806Z,156.51
2023-04-21T21:29:58.571Z,145.86
2023-04-21T21:33:10.856Z,161.98
2023-04-21T21:36:20.294Z,159.84
2023-04-21T21:39:26.958Z,143.83
2023-04-21T21:42:33.672Z,137.51
2023-04-21T21:45:39.937Z,136.92
2023-04-21T21:48:46.730Z,138.52
2023-04-21T21:51:55.349Z,142.08
2023-04-21T21:55:05.288Z,158.69
2023-04-21T21:58:13.642Z,195.06
2023-04-21T22:01:23.737Z,172.00
2023-04-21T22:04:29.789Z,173.31
2023-04-21T22:07:41.122Z,174.27
2023-04-21T22:10:49.125Z,186.79
2023-04-21T22:13:56.711Z,192.87
2023-04-21T22:17:03.770Z,194.19
2023-04-21T22:20:12.455Z,195.57
2023-04-21T22:23:22.900Z,200.48
2023-04-21T22:26:29.646Z,199.70
2023-04-21T22:29:35.723Z,227.16
2023-04-21T22:32:42.709Z,227.02
2023-04-21T22:35:48.724Z,220.39
2023-04-21T22:38:58.161Z,237.82
2023-04-21T22:42:04.120Z,221.15
2023-04-21T22:45:18.676Z,215.54
2023-04-21T22:48:26.461Z,204.91
2023-04-21T22:51:33.327Z,202.13
2023-04-21T22:54:42.823Z,211.65
2023-04-21T22:57:50.062Z,213.75
2023-04-21T23:00:56.472Z,218.54
2023-04-21T23:04:05.055Z,209.60
2023-04-21T23:07:10.994Z,194.68
2023-04-21T23:10:20.755Z,185.11
2023-04-21T23:13:26.650Z,187.60
2023-04-21T23:16:33.468Z,187.88
2023-04-21T23:19:39.688Z,184.39
2023-04-21T23:22:47.679Z,177.25
2023-04-21T23:25:56.269Z,185.57
2023-04-21T23:29:05.421Z,189.90
2023-04-21T23:32:11.461Z,192.59
2023-04-21T23:35:18.113Z,235.68
2023-04-21T23:38:24.081Z,223.09
2023-04-21T23:41:33.776Z,245.27
2023-04-21T23:44:40.632Z,228.41
2023-04-21T23:47:48.217Z,230.35
2023-04-21T23:50:54.169Z,241.12
2023-04-21T23:54:01.954Z,244.95
2023-04-21T23:57:10.623Z,246.23
